sensor_id;sensor_type;location;lat;lon;timestamp;P1;durP1;ratioP1;P2;durP2;ratioP2
17382;SDS011;8809;51.892;8.384;2023-07-20T00:00:46;3.00;;;1.70;;
17382;SDS011;8809;51.892;8.384;2023-07-20T00:03:14;2.92;;;2.00;;
17382;SDS011;8809;51.892;8.384;2023-07-20T00:05:44;1.80;;;1.70;;
17382;SDS011;8809;51.892;8.384;2023-07-20T00:08:12;2.38;;;2.10;;
17382;SDS011;8809;51.892;8.384;2023-07-20T00:10:41;3.90;;;2.78;;
17382;SDS011;8809;51.892;8.384;2023-07-20T00:13:08;3.95;;;2.83;;
17382;SDS011;8809;51.892;8.384;2023-07-20T00:15:35;3.50;;;2.80;;
17382;SDS011;8809;51.892;8.384;2023-07-20T00:18:03;3.83;;;3.03;;
17382;SDS011;8809;51.892;8.384;2023-07-20T00:20:30;2.70;;;2.45;;
17382;SDS011;8809;51.892;8.384;2023-07-20T00:22:57;3.45;;;2.97;;
17382;SDS011;8809;51.892;8.384;2023-07-20T00:25:24;2.78;;;2.50;;
17382;SDS011;8809;51.892;8.384;2023-07-20T00:27:53;3.63;;;2.92;;
17382;SDS011;8809;51.892;8.384;2023-07-20T00:30:20;3.10;;;2.63;;
17382;SDS011;8809;51.892;8.384;2023-07-20T00:32:47;2.40;;;2.20;;
17382;SDS011;8809;51.892;8.384;2023-07-20T00:35:14;2.90;;;2.30;;
17382;SDS011;8809;51.892;8.384;2023-07-20T00:37:41;2.70;;;2.40;;
17382;SDS011;8809;51.892;8.384;2023-07-20T00:40:08;3.55;;;2.20;;
17382;SDS011;8809;51.892;8.384;2023-07-20T00:42:36;4.65;;;3.90;;
17382;SDS011;8809;51.892;8.384;2023-07-20T00:45:20;4.60;;;3.00;;
17382;SDS011;8809;51.892;8.384;2023-07-20T00:47:47;4.50;;;3.25;;
17382;SDS011;8809;51.892;8.384;2023-07-20T00:50:14;3.50;;;2.85;;
17382;SDS011;8809;51.892;8.384;2023-07-20T00:52:42;4.45;;;4.00;;
17382;SDS011;8809;51.892;8.384;2023-07-20T00:55:09;4.10;;;3.70;;
17382;SDS011;8809;51.892;8.384;2023-07-20T00:57:37;3.63;;;3.33;;
17382;SDS011;8809;51.892;8.384;2023-07-20T01:00:05;4.13;;;3.72;;
17382;SDS011;8809;51.892;8.384;2023-07-20T01:02:35;5.03;;;4.53;;
17382;SDS011;8809;51.892;8.384;2023-07-20T01:05:02;3.53;;;3.20;;
17382;SDS011;8809;51.892;8.384;2023-07-20T01:07:32;3.83;;;3.53;;
17382;SDS011;8809;51.892;8.384;2023-07-20T01:10:05;3.40;;;3.05;;
17382;SDS011;8809;51.892;8.384;2023-07-20T01:12:40;3.63;;;3.10;;
17382;SDS011;8809;51.892;8.384;2023-07-20T01:15:09;3.30;;;2.45;;
17382;SDS011;8809;51.892;8.384;2023-07-20T01:17:41;3.00;;;2.65;;
17382;SDS011;8809;51.892;8.384;2023-07-20T01:20:10;2.60;;;2.40;;
17382;SDS011;8809;51.892;8.384;2023-07-20T01:22:50;3.88;;;2.65;;
17382;SDS011;8809;51.892;8.384;2023-07-20T01:25:35;2.50;;;2.30;;
17382;SDS011;8809;51.892;8.384;2023-07-20T01:28:31;2.97;;;2.28;;
17382;SDS011;8809;51.892;8.384;2023-07-20T01:31:16;2.50;;;2.30;;
17382;SDS011;8809;51.892;8.384;2023-07-20T01:33:47;2.50;;;2.30;;
17382;SDS011;8809;51.892;8.384;2023-07-20T01:36:16;4.25;;;3.33;;
17382;SDS011;8809;51.892;8.384;2023-07-20T01:38:45;9.25;;;5.80;;
17382;SDS011;8809;51.892;8.384;2023-07-20T01:41:13;8.38;;;7.07;;
17382;SDS011;8809;51.892;8.384;2023-07-20T01:43:42;8.02;;;6.47;;
17382;SDS011;8809;51.892;8.384;2023-07-20T01:46:09;9.23;;;6.53;;
17382;SDS011;8809;51.892;8.384;2023-07-20T01:48:37;7.30;;;6.15;;
17382;SDS011;8809;51.892;8.384;2023-07-20T01:51:05;10.05;;;6.80;;
17382;SDS011;8809;51.892;8.384;2023-07-20T01:53:32;9.40;;;7.18;;
17382;SDS011;8809;51.892;8.384;2023-07-20T01:55:59;12.95;;;7.90;;
17382;SDS011;8809;51.892;8.384;2023-07-20T01:58:26;9.52;;;7.85;;
17382;SDS011;8809;51.892;8.384;2023-07-20T02:00:53;12.85;;;9.10;;
17382;SDS011;8809;51.892;8.384;2023-07-20T02:03:20;10.23;;;8.60;;
17382;SDS011;8809;51.892;8.384;2023-07-20T02:05:51;13.77;;;10.45;;
17382;SDS011;8809;51.892;8.384;2023-07-20T02:08:18;12.90;;;9.40;;
17382;SDS011;8809;51.892;8.384;2023-07-20T02:10:46;13.30;;;10.18;;
17382;SDS011;8809;51.892;8.384;2023-07-20T02:13:14;13.38;;;9.88;;
17382;SDS011;8809;51.892;8.384;2023-07-20T02:15:41;10.45;;;8.55;;
17382;SDS011;8809;51.892;8.384;2023-07-20T02:18:08;10.30;;;8.00;;
17382;SDS011;8809;51.892;8.384;2023-07-20T02:20:36;8.40;;;7.05;;
17382;SDS011;8809;51.892;8.384;2023-07-20T02:23:04;11.43;;;7.90;;
17382;SDS011;8809;51.892;8.384;2023-07-20T02:25:31;11.35;;;9.40;;
17382;SDS011;8809;51.892;8.384;2023-07-20T02:27:58;8.02;;;6.90;;
17382;SDS011;8809;51.892;8.384;2023-07-20T02:30:26;9.48;;;7.00;;
17382;SDS011;8809;51.892;8.384;2023-07-20T02:32:53;8.32;;;6.68;;
17382;SDS011;8809;51.892;8.384;2023-07-20T02:35:26;6.43;;;5.32;;
17382;SDS011;8809;51.892;8.384;2023-07-20T02:37:53;7.47;;;5.05;;
17382;SDS011;8809;51.892;8.384;2023-07-20T02:40:22;6.45;;;4.97;;
17382;SDS011;8809;51.892;8.384;2023-07-20T02:42:49;5.53;;;4.50;;
17382;SDS011;8809;51.892;8.384;2023-07-20T02:45:16;5.32;;;4.68;;
17382;SDS011;8809;51.892;8.384;2023-07-20T02:47:44;4.78;;;4.22;;
17382;SDS011;8809;51.892;8.384;2023-07-20T02:50:11;9.13;;;6.53;;
17382;SDS011;8809;51.892;8.384;2023-07-20T02:52:39;6.90;;;6.20;;
17382;SDS011;8809;51.892;8.384;2023-07-20T02:55:06;10.15;;;6.72;;
17382;SDS011;8809;51.892;8.384;2023-07-20T02:57:35;8.63;;;7.13;;
17382;SDS011;8809;51.892;8.384;2023-07-20T03:00:03;6.47;;;5.50;;
17382;SDS011;8809;51.892;8.384;2023-07-20T03:02:32;5.30;;;4.80;;
17382;SDS011;8809;51.892;8.384;2023-07-20T03:04:59;5.50;;;4.70;;
17382;SDS011;8809;51.892;8.384;2023-07-20T03:07:28;5.90;;;4.97;;
17382;SDS011;8809;51.892;8.384;2023-07-20T03:09:55;5.55;;;4.93;;
17382;SDS011;8809;51.892;8.384;2023-07-20T03:12:23;6.50;;;4.90;;
17382;SDS011;8809;51.892;8.384;2023-07-20T03:14:52;5.20;;;4.70;;
17382;SDS011;8809;51.892;8.384;2023-07-20T03:17:19;10.35;;;6.05;;
17382;SDS011;8809;51.892;8.384;2023-07-20T03:19:47;9.13;;;7.68;;
17382;SDS011;8809;51.892;8.384;2023-07-20T03:22:14;7.80;;;6.70;;
17382;SDS011;8809;51.892;8.384;2023-07-20T03:24:42;8.27;;;7.47;;
17382;SDS011;8809;51.892;8.384;2023-07-20T03:27:09;8.18;;;6.88;;
17382;SDS011;8809;51.892;8.384;2023-07-20T03:29:36;7.03;;;6.32;;
17382;SDS011;8809;51.892;8.384;2023-07-20T03:32:05;8.68;;;7.32;;
17382;SDS011;8809;51.892;8.384;2023-07-20T03:34:32;10.50;;;7.80;;
17382;SDS011;8809;51.892;8.384;2023-07-20T03:37:00;9.65;;;7.38;;
17382;SDS011;8809;51.892;8.384;2023-07-20T03:39:29;12.32;;;8.68;;
17382;SDS011;8809;51.892;8.384;2023-07-20T03:41:57;10.52;;;7.30;;
17382;SDS011;8809;51.892;8.384;2023-07-20T03:44:24;8.82;;;7.70;;
17382;SDS011;8809;51.892;8.384;2023-07-20T03:46:51;8.75;;;7.18;;
17382;SDS011;8809;51.892;8.384;2023-07-20T03:49:20;12.85;;;7.88;;
17382;SDS011;8809;51.892;8.384;2023-07-20T03:51:47;10.20;;;8.40;;
17382;SDS011;8809;51.892;8.384;2023-07-20T03:54:14;12.48;;;9.20;;
17382;SDS011;8809;51.892;8.384;2023-07-20T03:56:41;8.32;;;7.32;;
17382;SDS011;8809;51.892;8.384;2023-07-20T03:59:09;8.25;;;6.90;;
17382;SDS011;8809;51.892;8.384;2023-07-20T04:01:36;8.68;;;7.72;;
17382;SDS011;8809;51.892;8.384;2023-07-20T04:04:06;7.72;;;6.47;;
17382;SDS011;8809;51.892;8.384;2023-07-20T04:06:35;9.75;;;7.22;;
17382;SDS011;8809;51.892;8.384;2023-07-20T04:09:02;10.23;;;8.55;;
17382;SDS011;8809;51.892;8.384;2023-07-20T04:11:30;9.95;;;7.68;;
17382;SDS011;8809;51.892;8.384;2023-07-20T04:13:57;7.20;;;6.43;;
17382;SDS011;8809;51.892;8.384;2023-07-20T04:16:25;8.63;;;7.75;;
17382;SDS011;8809;51.892;8.384;2023-07-20T04:18:54;8.45;;;6.68;;
17382;SDS011;8809;51.892;8.384;2023-07-20T04:21:22;8.50;;;6.80;;
17382;SDS011;8809;51.892;8.384;2023-07-20T04:23:51;8.23;;;7.43;;
17382;SDS011;8809;51.892;8.384;2023-07-20T04:26:18;10.95;;;8.45;;
17382;SDS011;8809;51.892;8.384;2023-07-20T04:28:45;8.93;;;7.20;;
17382;SDS011;8809;51.892;8.384;2023-07-20T04:31:13;6.68;;;5.97;;
17382;SDS011;8809;51.892;8.384;2023-07-20T04:33:42;7.25;;;6.32;;
17382;SDS011;8809;51.892;8.384;2023-07-20T04:36:09;6.93;;;5.07;;
17382;SDS011;8809;51.892;8.384;2023-07-20T04:38:38;5.97;;;4.70;;
17382;SDS011;8809;51.892;8.384;2023-07-20T04:41:06;6.57;;;5.13;;
17382;SDS011;8809;51.892;8.384;2023-07-20T04:43:33;5.72;;;5.03;;
17382;SDS011;8809;51.892;8.384;2023-07-20T04:46:01;5.50;;;4.60;;
17382;SDS011;8809;51.892;8.384;2023-07-20T04:48:28;6.05;;;5.00;;
17382;SDS011;8809;51.892;8.384;2023-07-20T04:50:56;5.05;;;4.47;;
17382;SDS011;8809;51.892;8.384;2023-07-20T04:53:23;5.90;;;4.38;;
17382;SDS011;8809;51.892;8.384;2023-07-20T04:55:50;4.57;;;4.10;;
17382;SDS011;8809;51.892;8.384;2023-07-20T04:58:19;4.60;;;4.20;;
17382;SDS011;8809;51.892;8.384;2023-07-20T05:00:47;4.45;;;3.40;;
17382;SDS011;8809;51.892;8.384;2023-07-20T05:03:15;3.75;;;3.40;;
17382;SDS011;8809;51.892;8.384;2023-07-20T05:05:42;3.40;;;3.10;;
17382;SDS011;8809;51.892;8.384;2023-07-20T05:08:09;4.22;;;3.10;;
17382;SDS011;8809;51.892;8.384;2023-07-20T05:10:36;4.00;;;3.30;;
17382;SDS011;8809;51.892;8.384;2023-07-20T05:13:04;3.58;;;3.28;;
17382;SDS011;8809;51.892;8.384;2023-07-20T05:15:33;3.35;;;3.05;;
17382;SDS011;8809;51.892;8.384;2023-07-20T05:18:01;3.58;;;3.28;;
17382;SDS011;8809;51.892;8.384;2023-07-20T05:20:28;2.83;;;2.63;;
17382;SDS011;8809;51.892;8.384;2023-07-20T05:22:57;2.83;;;2.63;;
17382;SDS011;8809;51.892;8.384;2023-07-20T05:25:24;2.60;;;2.40;;
17382;SDS011;8809;51.892;8.384;2023-07-20T05:27:51;3.80;;;2.55;;
17382;SDS011;8809;51.892;8.384;2023-07-20T05:30:20;3.17;;;2.88;;
17382;SDS011;8809;51.892;8.384;2023-07-20T05:32:49;3.80;;;2.83;;
17382;SDS011;8809;51.892;8.384;2023-07-20T05:35:19;2.75;;;2.38;;
17382;SDS011;8809;51.892;8.384;2023-07-20T05:37:47;2.50;;;2.30;;
17382;SDS011;8809;51.892;8.384;2023-07-20T05:40:14;2.17;;;2.03;;
17382;SDS011;8809;51.892;8.384;2023-07-20T05:42:46;2.28;;;2.08;;
17382;SDS011;8809;51.892;8.384;2023-07-20T05:45:14;2.30;;;2.10;;
17382;SDS011;8809;51.892;8.384;2023-07-20T05:47:42;1.92;;;1.80;;
17382;SDS011;8809;51.892;8.384;2023-07-20T05:50:10;2.50;;;1.88;;
17382;SDS011;8809;51.892;8.384;2023-07-20T05:52:38;2.20;;;2.00;;
17382;SDS011;8809;51.892;8.384;2023-07-20T05:55:06;2.28;;;2.03;;
17382;SDS011;8809;51.892;8.384;2023-07-20T05:57:34;2.70;;;2.15;;
17382;SDS011;8809;51.892;8.384;2023-07-20T06:00:06;3.10;;;2.40;;
17382;SDS011;8809;51.892;8.384;2023-07-20T06:02:36;3.28;;;2.40;;
17382;SDS011;8809;51.892;8.384;2023-07-20T06:05:03;2.30;;;2.10;;
17382;SDS011;8809;51.892;8.384;2023-07-20T06:07:36;2.15;;;1.98;;
17382;SDS011;8809;51.892;8.384;2023-07-20T06:10:03;2.05;;;1.85;;
17382;SDS011;8809;51.892;8.384;2023-07-20T06:12:31;2.10;;;1.90;;
17382;SDS011;8809;51.892;8.384;2023-07-20T06:17:29;1.80;;;1.70;;
17382;SDS011;8809;51.892;8.384;2023-07-20T06:19:56;2.00;;;1.90;;
17382;SDS011;8809;51.892;8.384;2023-07-20T06:22:23;2.00;;;1.80;;
17382;SDS011;8809;51.892;8.384;2023-07-20T06:24:52;2.10;;;2.00;;
17382;SDS011;8809;51.892;8.384;2023-07-20T06:27:19;1.88;;;1.77;;
17382;SDS011;8809;51.892;8.384;2023-07-20T06:29:46;2.00;;;1.90;;
17382;SDS011;8809;51.892;8.384;2023-07-20T06:32:13;2.45;;;2.25;;
17382;SDS011;8809;51.892;8.384;2023-07-20T06:34:40;1.70;;;1.60;;
17382;SDS011;8809;51.892;8.384;2023-07-20T06:37:08;1.85;;;1.73;;
17382;SDS011;8809;51.892;8.384;2023-07-20T06:39:35;2.28;;;2.08;;
17382;SDS011;8809;51.892;8.384;2023-07-20T06:42:04;2.08;;;1.95;;
17382;SDS011;8809;51.892;8.384;2023-07-20T06:44:31;3.10;;;2.42;;
17382;SDS011;8809;51.892;8.384;2023-07-20T06:46:58;1.90;;;1.77;;
17382;SDS011;8809;51.892;8.384;2023-07-20T06:49:27;2.13;;;1.92;;
17382;SDS011;8809;51.892;8.384;2023-07-20T06:51:55;2.10;;;1.90;;
17382;SDS011;8809;51.892;8.384;2023-07-20T06:54:22;2.67;;;2.47;;
17382;SDS011;8809;51.892;8.384;2023-07-20T06:56:50;1.88;;;1.77;;
17382;SDS011;8809;51.892;8.384;2023-07-20T06:59:21;2.50;;;1.60;;
17382;SDS011;8809;51.892;8.384;2023-07-20T07:01:49;1.63;;;1.40;;
17382;SDS011;8809;51.892;8.384;2023-07-20T07:04:16;2.00;;;1.80;;
17382;SDS011;8809;51.892;8.384;2023-07-20T07:06:44;1.85;;;1.75;;
17382;SDS011;8809;51.892;8.384;2023-07-20T07:09:11;1.85;;;1.70;;
17382;SDS011;8809;51.892;8.384;2023-07-20T07:11:40;2.58;;;1.75;;
17382;SDS011;8809;51.892;8.384;2023-07-20T07:14:09;1.77;;;1.35;;
17382;SDS011;8809;51.892;8.384;2023-07-20T07:16:38;1.30;;;1.00;;
17382;SDS011;8809;51.892;8.384;2023-07-20T07:19:06;1.27;;;1.17;;
17382;SDS011;8809;51.892;8.384;2023-07-20T07:21:33;4.70;;;1.35;;
17382;SDS011;8809;51.892;8.384;2023-07-20T07:24:01;1.60;;;1.45;;
17382;SDS011;8809;51.892;8.384;2023-07-20T07:26:29;1.75;;;1.30;;
17382;SDS011;8809;51.892;8.384;2023-07-20T07:28:56;1.55;;;1.45;;
17382;SDS011;8809;51.892;8.384;2023-07-20T07:31:24;2.00;;;1.80;;
17382;SDS011;8809;51.892;8.384;2023-07-20T07:33:53;2.17;;;1.80;;
17382;SDS011;8809;51.892;8.384;2023-07-20T07:36:21;1.45;;;1.35;;
17382;SDS011;8809;51.892;8.384;2023-07-20T07:38:49;1.25;;;1.15;;
17382;SDS011;8809;51.892;8.384;2023-07-20T07:41:16;1.77;;;1.35;;
17382;SDS011;8809;51.892;8.384;2023-07-20T07:43:44;1.30;;;1.20;;
17382;SDS011;8809;51.892;8.384;2023-07-20T07:46:11;1.25;;;1.15;;
17382;SDS011;8809;51.892;8.384;2023-07-20T07:48:39;1.33;;;1.23;;
17382;SDS011;8809;51.892;8.384;2023-07-20T07:51:08;1.10;;;1.00;;
17382;SDS011;8809;51.892;8.384;2023-07-20T07:53:35;1.13;;;1.00;;
17382;SDS011;8809;51.892;8.384;2023-07-20T07:56:03;1.05;;;1.00;;
17382;SDS011;8809;51.892;8.384;2023-07-20T07:58:33;1.10;;;1.00;;
17382;SDS011;8809;51.892;8.384;2023-07-20T08:01:01;0.90;;;0.90;;
17382;SDS011;8809;51.892;8.384;2023-07-20T08:03:29;1.02;;;0.93;;
17382;SDS011;8809;51.892;8.384;2023-07-20T08:05:57;1.00;;;0.90;;
17382;SDS011;8809;51.892;8.384;2023-07-20T08:08:26;1.15;;;0.90;;
17382;SDS011;8809;51.892;8.384;2023-07-20T08:10:53;1.20;;;1.00;;
17382;SDS011;8809;51.892;8.384;2023-07-20T08:13:21;0.90;;;0.90;;
17382;SDS011;8809;51.892;8.384;2023-07-20T08:15:49;1.27;;;0.90;;
17382;SDS011;8809;51.892;8.384;2023-07-20T08:18:17;2.10;;;1.13;;
17382;SDS011;8809;51.892;8.384;2023-07-20T08:20:45;0.90;;;0.85;;
17382;SDS011;8809;51.892;8.384;2023-07-20T08:23:12;1.27;;;1.05;;
17382;SDS011;8809;51.892;8.384;2023-07-20T08:25:41;1.58;;;1.20;;
17382;SDS011;8809;51.892;8.384;2023-07-20T08:28:09;1.90;;;1.00;;
17382;SDS011;8809;51.892;8.384;2023-07-20T08:30:40;1.55;;;0.80;;
17382;SDS011;8809;51.892;8.384;2023-07-20T08:33:09;1.30;;;0.90;;
17382;SDS011;8809;51.892;8.384;2023-07-20T08:35:37;1.02;;;0.93;;
17382;SDS011;8809;51.892;8.384;2023-07-20T08:38:04;0.98;;;0.80;;
17382;SDS011;8809;51.892;8.384;2023-07-20T08:40:31;1.70;;;0.70;;
17382;SDS011;8809;51.892;8.384;2023-07-20T08:43:01;1.17;;;0.90;;
17382;SDS011;8809;51.892;8.384;2023-07-20T08:45:28;0.77;;;0.73;;
17382;SDS011;8809;51.892;8.384;2023-07-20T08:47:59;0.70;;;0.70;;
17382;SDS011;8809;51.892;8.384;2023-07-20T08:50:31;0.68;;;0.68;;
17382;SDS011;8809;51.892;8.384;2023-07-20T08:52:58;1.80;;;0.90;;
17382;SDS011;8809;51.892;8.384;2023-07-20T08:55:27;1.30;;;1.17;;
17382;SDS011;8809;51.892;8.384;2023-07-20T08:57:55;1.42;;;1.10;;
17382;SDS011;8809;51.892;8.384;2023-07-20T09:00:24;2.80;;;1.70;;
17382;SDS011;8809;51.892;8.384;2023-07-20T09:02:53;2.65;;;1.25;;
17382;SDS011;8809;51.892;8.384;2023-07-20T09:05:22;2.90;;;1.10;;
17382;SDS011;8809;51.892;8.384;2023-07-20T09:07:50;3.33;;;1.00;;
17382;SDS011;8809;51.892;8.384;2023-07-20T09:10:19;3.35;;;1.15;;
17382;SDS011;8809;51.892;8.384;2023-07-20T09:12:48;1.00;;;0.90;;
17382;SDS011;8809;51.892;8.384;2023-07-20T09:15:15;0.80;;;0.70;;
17382;SDS011;8809;51.892;8.384;2023-07-20T09:17:47;1.02;;;0.80;;
17382;SDS011;8809;51.892;8.384;2023-07-20T09:20:21;1.00;;;0.77;;
17382;SDS011;8809;51.892;8.384;2023-07-20T09:22:50;1.25;;;0.90;;
17382;SDS011;8809;51.892;8.384;2023-07-20T09:25:18;1.10;;;1.00;;
17382;SDS011;8809;51.892;8.384;2023-07-20T09:27:46;2.97;;;1.00;;
17382;SDS011;8809;51.892;8.384;2023-07-20T09:30:16;1.90;;;0.70;;
17382;SDS011;8809;51.892;8.384;2023-07-20T09:32:44;0.98;;;0.70;;
17382;SDS011;8809;51.892;8.384;2023-07-20T09:35:14;1.23;;;0.70;;
17382;SDS011;8809;51.892;8.384;2023-07-20T09:37:46;0.68;;;0.60;;
17382;SDS011;8809;51.892;8.384;2023-07-20T09:40:17;0.65;;;0.60;;
17382;SDS011;8809;51.892;8.384;2023-07-20T09:42:47;0.50;;;0.50;;
17382;SDS011;8809;51.892;8.384;2023-07-20T09:45:14;0.60;;;0.52;;
17382;SDS011;8809;51.892;8.384;2023-07-20T09:47:42;0.85;;;0.60;;
17382;SDS011;8809;51.892;8.384;2023-07-20T09:50:09;0.60;;;0.60;;
17382;SDS011;8809;51.892;8.384;2023-07-20T09:52:41;2.85;;;1.02;;
17382;SDS011;8809;51.892;8.384;2023-07-20T09:55:12;2.60;;;1.20;;
17382;SDS011;8809;51.892;8.384;2023-07-20T09:57:42;0.77;;;0.77;;
17382;SDS011;8809;51.892;8.384;2023-07-20T10:00:10;0.88;;;0.88;;
17382;SDS011;8809;51.892;8.384;2023-07-20T10:02:41;1.10;;;0.80;;
17382;SDS011;8809;51.892;8.384;2023-07-20T10:05:13;0.88;;;0.80;;
17382;SDS011;8809;51.892;8.384;2023-07-20T10:07:46;1.42;;;0.45;;
17382;SDS011;8809;51.892;8.384;2023-07-20T10:10:15;1.15;;;0.80;;
17382;SDS011;8809;51.892;8.384;2023-07-20T10:12:44;1.08;;;0.80;;
17382;SDS011;8809;51.892;8.384;2023-07-20T10:15:15;0.70;;;0.65;;
17382;SDS011;8809;51.892;8.384;2023-07-20T10:17:48;0.60;;;0.60;;
17382;SDS011;8809;51.892;8.384;2023-07-20T10:20:24;1.73;;;1.63;;
17382;SDS011;8809;51.892;8.384;2023-07-20T10:22:54;3.35;;;2.10;;
17382;SDS011;8809;51.892;8.384;2023-07-20T10:25:23;1.90;;;1.50;;
17382;SDS011;8809;51.892;8.384;2023-07-20T10:27:51;1.65;;;1.50;;
17382;SDS011;8809;51.892;8.384;2023-07-20T10:30:18;2.53;;;2.00;;
17382;SDS011;8809;51.892;8.384;2023-07-20T10:32:48;2.30;;;1.90;;
17382;SDS011;8809;51.892;8.384;2023-07-20T10:35:17;2.17;;;1.90;;
17382;SDS011;8809;51.892;8.384;2023-07-20T10:37:49;2.13;;;1.80;;
17382;SDS011;8809;51.892;8.384;2023-07-20T10:40:27;2.58;;;2.38;;
17382;SDS011;8809;51.892;8.384;2023-07-20T10:42:59;2.28;;;1.90;;
17382;SDS011;8809;51.892;8.384;2023-07-20T10:48:18;1.70;;;1.60;;
17382;SDS011;8809;51.892;8.384;2023-07-20T10:53:40;2.00;;;1.80;;
17382;SDS011;8809;51.892;8.384;2023-07-20T10:56:11;3.60;;;3.25;;
17382;SDS011;8809;51.892;8.384;2023-07-20T10:58:39;4.53;;;3.95;;
17382;SDS011;8809;51.892;8.384;2023-07-20T11:01:16;3.17;;;2.88;;
17382;SDS011;8809;51.892;8.384;2023-07-20T11:03:48;2.00;;;1.90;;
17382;SDS011;8809;51.892;8.384;2023-07-20T11:06:30;2.25;;;2.05;;
17382;SDS011;8809;51.892;8.384;2023-07-20T11:09:06;2.00;;;1.90;;
17382;SDS011;8809;51.892;8.384;2023-07-20T11:11:38;2.72;;;2.00;;
17382;SDS011;8809;51.892;8.384;2023-07-20T11:14:06;1.63;;;1.50;;
17382;SDS011;8809;51.892;8.384;2023-07-20T11:16:35;1.90;;;1.80;;
17382;SDS011;8809;51.892;8.384;2023-07-20T11:19:04;2.50;;;2.30;;
17382;SDS011;8809;51.892;8.384;2023-07-20T11:21:40;2.50;;;2.30;;
17382;SDS011;8809;51.892;8.384;2023-07-20T11:24:08;2.08;;;1.92;;
17382;SDS011;8809;51.892;8.384;2023-07-20T11:26:44;2.42;;;1.83;;
17382;SDS011;8809;51.892;8.384;2023-07-20T11:29:12;2.42;;;2.20;;
17382;SDS011;8809;51.892;8.384;2023-07-20T11:31:40;2.05;;;1.88;;
17382;SDS011;8809;51.892;8.384;2023-07-20T11:34:09;2.47;;;2.20;;
17382;SDS011;8809;51.892;8.384;2023-07-20T11:36:39;2.42;;;1.90;;
17382;SDS011;8809;51.892;8.384;2023-07-20T11:39:08;2.10;;;1.98;;
17382;SDS011;8809;51.892;8.384;2023-07-20T11:41:38;1.80;;;1.70;;
17382;SDS011;8809;51.892;8.384;2023-07-20T11:44:09;2.10;;;1.90;;
17382;SDS011;8809;51.892;8.384;2023-07-20T11:46:38;1.90;;;1.80;;
17382;SDS011;8809;51.892;8.384;2023-07-20T11:49:06;1.77;;;1.67;;
17382;SDS011;8809;51.892;8.384;2023-07-20T11:51:33;1.90;;;1.80;;
17382;SDS011;8809;51.892;8.384;2023-07-20T11:54:02;1.80;;;1.70;;
17382;SDS011;8809;51.892;8.384;2023-07-20T11:56:30;1.80;;;1.70;;
17382;SDS011;8809;51.892;8.384;2023-07-20T11:58:57;1.77;;;1.50;;
17382;SDS011;8809;51.892;8.384;2023-07-20T12:01:29;1.40;;;1.27;;
17382;SDS011;8809;51.892;8.384;2023-07-20T12:04:00;1.77;;;1.67;;
17382;SDS011;8809;51.892;8.384;2023-07-20T12:06:29;1.65;;;1.40;;
17382;SDS011;8809;51.892;8.384;2023-07-20T12:08:58;6.65;;;4.85;;
17382;SDS011;8809;51.892;8.384;2023-07-20T12:11:32;8.35;;;6.28;;
17382;SDS011;8809;51.892;8.384;2023-07-20T12:14:02;4.15;;;3.22;;
17382;SDS011;8809;51.892;8.384;2023-07-20T12:16:34;1.33;;;1.10;;
17382;SDS011;8809;51.892;8.384;2023-07-20T12:19:04;1.00;;;0.90;;
17382;SDS011;8809;51.892;8.384;2023-07-20T12:21:33;0.65;;;0.63;;
17382;SDS011;8809;51.892;8.384;2023-07-20T12:24:02;1.50;;;0.90;;
17382;SDS011;8809;51.892;8.384;2023-07-20T12:26:31;0.80;;;0.80;;
17382;SDS011;8809;51.892;8.384;2023-07-20T12:29:01;0.93;;;0.80;;
17382;SDS011;8809;51.892;8.384;2023-07-20T12:31:29;1.77;;;0.80;;
17382;SDS011;8809;51.892;8.384;2023-07-20T12:33:59;1.00;;;0.90;;
17382;SDS011;8809;51.892;8.384;2023-07-20T12:36:26;0.98;;;0.60;;
17382;SDS011;8809;51.892;8.384;2023-07-20T12:38:53;1.13;;;0.70;;
17382;SDS011;8809;51.892;8.384;2023-07-20T12:41:20;0.63;;;0.60;;
17382;SDS011;8809;51.892;8.384;2023-07-20T12:43:48;0.70;;;0.55;;
17382;SDS011;8809;51.892;8.384;2023-07-20T12:46:15;0.57;;;0.57;;
17382;SDS011;8809;51.892;8.384;2023-07-20T12:48:44;0.52;;;0.50;;
17382;SDS011;8809;51.892;8.384;2023-07-20T12:51:13;0.50;;;0.50;;
17382;SDS011;8809;51.892;8.384;2023-07-20T12:53:40;0.40;;;0.40;;
17382;SDS011;8809;51.892;8.384;2023-07-20T12:56:07;0.50;;;0.50;;
17382;SDS011;8809;51.892;8.384;2023-07-20T12:58:36;0.40;;;0.40;;
17382;SDS011;8809;51.892;8.384;2023-07-20T13:01:04;0.45;;;0.45;;
17382;SDS011;8809;51.892;8.384;2023-07-20T13:03:31;0.70;;;0.50;;
17382;SDS011;8809;51.892;8.384;2023-07-20T13:06:01;0.63;;;0.50;;
17382;SDS011;8809;51.892;8.384;2023-07-20T13:08:30;0.50;;;0.50;;
17382;SDS011;8809;51.892;8.384;2023-07-20T13:10:58;0.50;;;0.50;;
17382;SDS011;8809;51.892;8.384;2023-07-20T13:13:26;1.10;;;0.50;;
17382;SDS011;8809;51.892;8.384;2023-07-20T13:15:54;1.40;;;0.68;;
17382;SDS011;8809;51.892;8.384;2023-07-20T13:18:22;0.40;;;0.40;;
17382;SDS011;8809;51.892;8.384;2023-07-20T13:20:49;0.70;;;0.50;;
17382;SDS011;8809;51.892;8.384;2023-07-20T13:23:17;0.80;;;0.77;;
17382;SDS011;8809;51.892;8.384;2023-07-20T13:25:46;0.73;;;0.50;;
17382;SDS011;8809;51.892;8.384;2023-07-20T13:28:13;0.50;;;0.50;;
17382;SDS011;8809;51.892;8.384;2023-07-20T13:30:41;0.75;;;0.57;;
17382;SDS011;8809;51.892;8.384;2023-07-20T13:33:10;0.45;;;0.43;;
17382;SDS011;8809;51.892;8.384;2023-07-20T13:35:37;0.60;;;0.45;;
17382;SDS011;8809;51.892;8.384;2023-07-20T13:38:07;0.55;;;0.50;;
17382;SDS011;8809;51.892;8.384;2023-07-20T13:40:35;0.60;;;0.50;;
17382;SDS011;8809;51.892;8.384;2023-07-20T13:43:04;0.80;;;0.80;;
17382;SDS011;8809;51.892;8.384;2023-07-20T13:45:31;0.80;;;0.70;;
17382;SDS011;8809;51.892;8.384;2023-07-20T13:48:00;0.60;;;0.50;;
17382;SDS011;8809;51.892;8.384;2023-07-20T13:50:27;1.05;;;0.55;;
17382;SDS011;8809;51.892;8.384;2023-07-20T13:52:55;0.52;;;0.52;;
17382;SDS011;8809;51.892;8.384;2023-07-20T13:55:24;0.70;;;0.43;;
17382;SDS011;8809;51.892;8.384;2023-07-20T13:57:53;0.70;;;0.50;;
17382;SDS011;8809;51.892;8.384;2023-07-20T14:00:21;0.50;;;0.45;;
17382;SDS011;8809;51.892;8.384;2023-07-20T14:02:53;0.60;;;0.60;;
17382;SDS011;8809;51.892;8.384;2023-07-20T14:05:23;0.50;;;0.40;;
17382;SDS011;8809;51.892;8.384;2023-07-20T14:07:51;1.27;;;0.30;;
17382;SDS011;8809;51.892;8.384;2023-07-20T14:10:18;0.88;;;0.60;;
17382;SDS011;8809;51.892;8.384;2023-07-20T14:12:45;0.88;;;0.60;;
17382;SDS011;8809;51.892;8.384;2023-07-20T14:15:12;0.60;;;0.50;;
17382;SDS011;8809;51.892;8.384;2023-07-20T14:17:41;0.30;;;0.30;;
17382;SDS011;8809;51.892;8.384;2023-07-20T14:20:09;0.93;;;0.38;;
17382;SDS011;8809;51.892;8.384;2023-07-20T14:22:36;0.30;;;0.30;;
17382;SDS011;8809;51.892;8.384;2023-07-20T14:25:04;0.43;;;0.40;;
17382;SDS011;8809;51.892;8.384;2023-07-20T14:27:31;0.30;;;0.30;;
17382;SDS011;8809;51.892;8.384;2023-07-20T14:29:58;0.30;;;0.30;;
17382;SDS011;8809;51.892;8.384;2023-07-20T14:32:26;0.85;;;0.40;;
17382;SDS011;8809;51.892;8.384;2023-07-20T14:34:54;0.57;;;0.43;;
17382;SDS011;8809;51.892;8.384;2023-07-20T14:37:21;0.57;;;0.50;;
17382;SDS011;8809;51.892;8.384;2023-07-20T14:39:48;0.60;;;0.50;;
17382;SDS011;8809;51.892;8.384;2023-07-20T14:42:16;0.50;;;0.50;;
17382;SDS011;8809;51.892;8.384;2023-07-20T14:44:44;0.50;;;0.50;;
17382;SDS011;8809;51.892;8.384;2023-07-20T14:47:11;0.63;;;0.52;;
17382;SDS011;8809;51.892;8.384;2023-07-20T14:49:38;0.40;;;0.40;;
17382;SDS011;8809;51.892;8.384;2023-07-20T14:52:07;0.40;;;0.32;;
17382;SDS011;8809;51.892;8.384;2023-07-20T14:54:35;0.32;;;0.32;;
17382;SDS011;8809;51.892;8.384;2023-07-20T14:57:02;1.35;;;0.60;;
17382;SDS011;8809;51.892;8.384;2023-07-20T14:59:30;0.93;;;0.40;;
17382;SDS011;8809;51.892;8.384;2023-07-20T15:01:57;1.55;;;0.60;;
17382;SDS011;8809;51.892;8.384;2023-07-20T15:04:24;0.57;;;0.43;;
17382;SDS011;8809;51.892;8.384;2023-07-20T15:06:52;0.38;;;0.38;;
17382;SDS011;8809;51.892;8.384;2023-07-20T15:09:21;0.57;;;0.45;;
17382;SDS011;8809;51.892;8.384;2023-07-20T15:11:48;0.65;;;0.40;;
17382;SDS011;8809;51.892;8.384;2023-07-20T15:14:15;0.35;;;0.35;;
17382;SDS011;8809;51.892;8.384;2023-07-20T15:16:43;0.80;;;0.50;;